createdAt,value
2018-01-04T00:00:01.634Z,2.78
2018-01-04T00:02:30.126Z,3.28
2018-01-04T00:04:57.836Z,4.32
2018-01-04T00:07:25.602Z,3.17
2018-01-04T00:09:53.315Z,3.72
2018-01-04T00:12:21.811Z,2.95
2018-01-04T00:14:49.614Z,4.28
2018-01-04T00:17:17.483Z,2.92
2018-01-04T00:19:45.352Z,3.25
2018-01-04T00:22:13.221Z,2.97
2018-01-04T00:24:41.084Z,2.75
2018-01-04T00:27:08.950Z,3.72
2018-01-04T00:29:36.820Z,3.30
2018-01-04T00:32:04.687Z,3.08
2018-01-04T00:34:32.553Z,3.78
2018-01-04T00:37:00.421Z,2.83
2018-01-04T00:39:28.134Z,3.58
2018-01-04T00:41:56.610Z,3.72
2018-01-04T00:44:25.078Z,2.80
2018-01-04T00:46:52.913Z,2.60
2018-01-04T00:49:20.781Z,4.05
2018-01-04T00:51:48.648Z,3.37
2018-01-04T00:54:16.518Z,3.65
2018-01-04T00:56:44.240Z,2.75
2018-01-04T00:59:12.046Z,3.62
2018-01-04T01:01:39.842Z,3.47
2018-01-04T01:04:07.678Z,3.80
2018-01-04T01:06:35.407Z,3.05
2018-01-04T01:09:03.226Z,3.20
2018-01-04T01:11:31.792Z,3.10
2018-01-04T01:13:59.659Z,3.62
2018-01-04T01:16:27.527Z,5.35
2018-01-04T01:18:55.525Z,3.42
2018-01-04T01:21:23.250Z,3.90
2018-01-04T01:23:51.128Z,3.03
2018-01-04T01:26:18.996Z,3.05
2018-01-04T01:28:46.863Z,2.35
2018-01-04T01:31:14.736Z,3.97
2018-01-04T01:33:42.597Z,2.92
2018-01-04T01:36:10.468Z,3.70
2018-01-04T01:38:38.334Z,2.87
2018-01-04T01:41:06.304Z,4.40
2018-01-04T01:43:34.173Z,4.03
2018-01-04T01:46:01.885Z,4.07
2018-01-04T01:48:29.599Z,3.22
2018-01-04T01:50:57.316Z,4.72
2018-01-04T01:53:25.033Z,3.50
2018-01-04T01:55:52.753Z,3.58
2018-01-04T01:58:20.489Z,3.95
2018-01-04T02:00:48.997Z,3.05
2018-01-04T02:03:16.735Z,3.65
2018-01-04T02:05:45.238Z,3.45
2018-01-04T02:08:12.965Z,3.25
2018-01-04T02:10:40.690Z,3.95
2018-01-04T02:13:08.397Z,3.42
2018-01-04T02:15:36.120Z,3.70
2018-01-04T02:18:30.658Z,3.85
2018-01-04T02:21:10.273Z,4.15
2018-01-04T02:23:49.917Z,3.90
2018-01-04T02:26:29.591Z,4.03
2018-01-04T02:28:58.012Z,4.70
2018-01-04T02:31:37.596Z,4.12
2018-01-04T02:37:26.037Z,4.93
2018-01-04T02:40:05.691Z,3.67
2018-01-04T02:42:45.250Z,3.95
2018-01-04T02:45:24.742Z,4.00
2018-01-04T02:47:52.458Z,3.00
2018-01-04T02:50:20.199Z,3.85
2018-01-04T02:52:47.893Z,2.70
2018-01-04T02:55:15.736Z,2.67
2018-01-04T02:57:43.603Z,2.37
2018-01-04T03:00:11.338Z,2.53
2018-01-04T03:02:39.046Z,2.00
2018-01-04T03:05:06.899Z,2.00
2018-01-04T03:07:34.766Z,2.20
2018-01-04T03:10:02.633Z,2.12
2018-01-04T03:12:30.500Z,2.33
2018-01-04T03:14:58.367Z,1.80
2018-01-04T03:17:26.235Z,1.70
2018-01-04T03:19:53.958Z,2.08
2018-01-04T03:22:27.310Z,2.40
2018-01-04T03:25:00.797Z,2.15
2018-01-04T03:27:44.430Z,2.08
2018-01-04T03:30:17.732Z,2.78
2018-01-04T03:32:51.206Z,1.95
2018-01-04T03:35:24.647Z,2.40
2018-01-04T03:38:09.126Z,2.10
2018-01-04T03:40:43.154Z,2.25
2018-01-04T03:43:16.547Z,2.65
2018-01-04T03:45:50.019Z,1.95
2018-01-04T03:48:24.303Z,1.92
2018-01-04T03:50:57.701Z,2.00
2018-01-04T03:53:31.098Z,1.95
2018-01-04T03:56:04.528Z,1.95
2018-01-04T03:58:38.813Z,2.05
2018-01-04T04:01:12.242Z,1.95
2018-01-04T04:03:40.078Z,2.30
2018-01-04T04:06:13.781Z,1.90
2018-01-04T04:08:44.350Z,2.37
2018-01-04T04:11:12.899Z,2.25
2018-01-04T04:13:40.764Z,2.35
2018-01-04T04:16:08.630Z,2.20
2018-01-04T04:18:36.497Z,1.85
2018-01-04T04:21:04.364Z,2.17
2018-01-04T04:23:32.235Z,2.72
2018-01-04T04:25:59.938Z,2.67
2018-01-04T04:28:28.397Z,2.00
2018-01-04T04:30:56.105Z,2.05
2018-01-04T04:33:23.909Z,2.60
2018-01-04T04:35:51.618Z,2.50
2018-01-04T04:38:20.090Z,3.28
2018-01-04T04:40:48.554Z,3.58
2018-01-04T04:43:17.002Z,2.42
2018-01-04T04:45:44.714Z,2.95
2018-01-04T04:48:13.260Z,2.22
2018-01-04T04:50:41.129Z,2.92
2018-01-04T04:53:08.995Z,2.83
2018-01-04T04:55:36.862Z,2.55
2018-01-04T04:58:04.732Z,2.90
2018-01-04T05:00:32.598Z,2.55
2018-01-04T05:03:00.465Z,2.95
2018-01-04T05:05:28.334Z,3.78
2018-01-04T05:07:56.200Z,3.22
2018-01-04T05:10:24.067Z,2.80
2018-01-04T05:12:51.772Z,2.80
2018-01-04T05:15:20.242Z,3.12
2018-01-04T05:17:47.949Z,3.15
2018-01-04T05:20:15.657Z,3.92
2018-01-04T05:22:44.639Z,3.03
2018-01-04T05:25:12.353Z,4.10
2018-01-04T05:27:40.065Z,4.00
2018-01-04T05:30:07.770Z,5.32
2018-01-04T05:32:36.246Z,4.80
2018-01-04T05:35:04.730Z,3.85
2018-01-04T05:37:33.372Z,4.30
2018-01-04T05:40:01.239Z,3.35
2018-01-04T05:42:29.107Z,4.95
2018-01-04T05:44:56.973Z,4.15
2018-01-04T05:47:24.846Z,4.32
2018-01-04T05:49:52.711Z,4.25
2018-01-04T05:52:20.577Z,3.45
2018-01-04T05:54:48.449Z,4.18
2018-01-04T05:57:16.310Z,5.18
2018-01-04T05:59:44.178Z,5.55
2018-01-04T06:02:12.045Z,5.03
2018-01-04T06:04:39.797Z,3.80
2018-01-04T06:07:07.512Z,3.45
2018-01-04T06:09:35.993Z,3.30
2018-01-04T06:12:04.482Z,4.45
2018-01-04T06:14:32.958Z,3.50
2018-01-04T06:17:01.433Z,4.05
2018-01-04T06:19:29.922Z,4.12
2018-01-04T06:21:58.395Z,3.60
2018-01-04T06:24:26.113Z,3.08
2018-01-04T06:26:53.854Z,2.95
2018-01-04T06:29:21.575Z,3.22
2018-01-04T06:31:49.291Z,2.70
2018-01-04T06:34:17.002Z,3.22
2018-01-04T06:36:44.814Z,2.78
2018-01-04T06:39:12.532Z,3.75
2018-01-04T06:41:40.380Z,3.28
2018-01-04T06:44:08.247Z,3.53
2018-01-04T06:46:36.114Z,3.47
2018-01-04T06:49:03.981Z,3.35
2018-01-04T06:51:31.855Z,3.37
2018-01-04T06:54:00.536Z,3.50
2018-01-04T06:56:28.403Z,3.95
2018-01-04T06:58:56.270Z,3.47
2018-01-04T07:01:24.138Z,2.42
2018-01-04T07:03:52.005Z,4.10
2018-01-04T07:06:19.872Z,3.87
2018-01-04T07:08:47.739Z,3.28
2018-01-04T07:11:15.606Z,2.92
2018-01-04T07:13:43.474Z,3.55
2018-01-04T07:16:11.191Z,3.40
2018-01-04T07:18:39.004Z,2.70
2018-01-04T07:21:06.872Z,3.58
2018-01-04T07:23:34.739Z,3.40
2018-01-04T07:26:02.609Z,3.70
2018-01-04T07:28:30.472Z,3.15
2018-01-04T07:30:58.177Z,3.75
2018-01-04T07:33:26.651Z,3.37
2018-01-04T07:35:55.136Z,3.00
2018-01-04T07:38:23.688Z,3.78
2018-01-04T07:40:51.402Z,3.78
2018-01-04T07:43:19.113Z,3.30
2018-01-04T07:45:46.822Z,3.67
2018-01-04T07:48:15.299Z,2.72
2018-01-04T07:50:44.271Z,3.15
2018-01-04T07:53:12.056Z,3.35
2018-01-04T07:55:40.700Z,3.53
2018-01-04T07:58:08.567Z,3.30
2018-01-04T08:00:36.436Z,3.15
2018-01-04T08:03:04.164Z,2.83
2018-01-04T08:05:31.875Z,3.03
2018-01-04T08:07:59.598Z,3.00
2018-01-04T08:10:27.311Z,3.67
2018-01-04T08:12:55.030Z,2.50
2018-01-04T08:15:22.819Z,2.65
2018-01-04T08:17:50.687Z,3.03
2018-01-04T08:20:18.483Z,3.25
2018-01-04T08:22:46.327Z,2.95
2018-01-04T08:25:14.186Z,3.15
2018-01-04T08:27:42.053Z,2.50
2018-01-04T08:30:09.777Z,2.20
2018-01-04T08:32:37.822Z,2.97
2018-01-04T08:35:06.288Z,3.22
2018-01-04T08:37:33.990Z,2.60
2018-01-04T08:40:01.699Z,2.85
2018-01-04T08:42:29.413Z,3.00
2018-01-04T08:44:57.878Z,2.10
2018-01-04T08:47:26.351Z,2.65
2018-01-04T08:49:54.084Z,2.20
2018-01-04T08:52:21.955Z,2.03
2018-01-04T08:54:49.823Z,1.80
2018-01-04T08:57:17.563Z,1.50
2018-01-04T08:59:45.276Z,1.33
2018-01-04T09:02:12.974Z,1.70
2018-01-04T09:04:40.682Z,1.50
2018-01-04T09:07:08.380Z,1.50
2018-01-04T09:09:36.874Z,2.22
2018-01-04T09:12:05.346Z,2.10
2018-01-04T09:14:33.817Z,1.75
2018-01-04T09:17:01.652Z,2.25
2018-01-04T09:19:29.519Z,2.60
2018-01-04T09:21:57.387Z,2.00
2018-01-04T09:24:25.255Z,2.37
2018-01-04T09:26:52.974Z,2.50
2018-01-04T09:29:20.682Z,2.40
2018-01-04T09:31:48.394Z,2.55
2018-01-04T09:34:16.865Z,2.15
2018-01-04T09:36:45.339Z,2.33
2018-01-04T09:39:13.820Z,2.50
2018-01-04T09:41:41.531Z,2.95
2018-01-04T09:44:09.332Z,2.35
2018-01-04T09:46:37.055Z,2.40
2018-01-04T09:49:04.763Z,2.12
2018-01-04T09:51:32.483Z,2.67
2018-01-04T09:54:00.188Z,2.58
2018-01-04T09:56:27.909Z,2.75
2018-01-04T09:58:55.621Z,2.90
2018-01-04T10:01:23.468Z,2.90
2018-01-04T10:03:51.336Z,3.10
2018-01-04T10:06:19.204Z,3.10
2018-01-04T10:08:47.070Z,3.00
2018-01-04T10:11:14.778Z,3.70
2018-01-04T10:13:43.251Z,3.42
2018-01-04T10:16:11.799Z,3.65
2018-01-04T10:18:39.668Z,2.75
2018-01-04T10:21:07.534Z,3.10
2018-01-04T10:23:35.401Z,3.33
2018-01-04T10:26:03.268Z,3.50
2018-01-04T10:28:31.139Z,4.05
2018-01-04T10:30:59.004Z,3.80
2018-01-04T10:33:26.871Z,5.30
2018-01-04T10:35:54.570Z,6.15
2018-01-04T10:38:23.117Z,7.00
2018-01-04T10:40:50.983Z,8.18
2018-01-04T10:43:18.852Z,8.25
2018-01-04T10:45:46.559Z,9.60
2018-01-04T10:48:15.034Z,10.63
2018-01-04T10:50:43.514Z,11.35
2018-01-04T10:53:11.994Z,9.23
2018-01-04T10:55:40.645Z,10.43
2018-01-04T10:58:08.514Z,12.48
2018-01-04T11:00:36.380Z,12.55
2018-01-04T11:03:04.247Z,11.85
2018-01-04T11:05:32.115Z,12.55
2018-01-04T11:07:59.984Z,14.52
2018-01-04T11:10:28.160Z,14.50
2018-01-04T11:12:55.862Z,14.52
2018-01-04T11:15:24.344Z,13.65
2018-01-04T11:17:52.824Z,13.43
2018-01-04T11:20:21.471Z,13.40
2018-01-04T11:22:49.362Z,11.65
2018-01-04T11:25:17.205Z,12.70
2018-01-04T11:27:45.072Z,11.27
2018-01-04T11:30:12.939Z,11.27
2018-01-04T11:32:40.806Z,10.45
2018-01-04T11:35:08.674Z,11.43
2018-01-04T11:37:36.597Z,9.30
2018-01-04T11:40:05.227Z,8.10
2018-01-04T11:42:33.095Z,9.38
2018-01-04T11:45:00.963Z,8.40
2018-01-04T11:47:28.834Z,9.77
2018-01-04T11:49:56.696Z,7.95
2018-01-04T11:52:24.564Z,8.38
2018-01-04T11:54:52.286Z,8.30
2018-01-04T11:57:19.987Z,8.00
2018-01-04T11:59:47.691Z,7.40
2018-01-04T12:02:16.340Z,7.20
2018-01-04T12:04:44.208Z,7.12
2018-01-04T12:07:12.075Z,7.97
2018-01-04T12:09:39.789Z,7.37
2018-01-04T12:12:08.287Z,8.25
2018-01-04T12:14:36.025Z,7.32
2018-01-04T12:17:04.670Z,8.05
2018-01-04T12:19:32.387Z,7.03
2018-01-04T12:22:00.870Z,7.70
2018-01-04T12:24:28.593Z,7.80
2018-01-04T12:26:56.447Z,8.43
2018-01-04T12:29:24.241Z,8.07
2018-01-04T12:31:52.082Z,7.93
2018-01-04T12:34:20.059Z,8.25
2018-01-04T12:36:47.781Z,8.40
2018-01-04T12:39:15.502Z,7.28
2018-01-04T12:41:43.213Z,7.50
2018-01-04T12:44:11.210Z,7.97
2018-01-04T12:46:38.909Z,7.47
2018-01-04T12:49:07.459Z,7.65
2018-01-04T12:51:35.324Z,6.95
2018-01-04T12:54:03.192Z,6.68
2018-01-04T12:56:30.913Z,6.70
2018-01-04T12:58:58.617Z,7.53
2018-01-04T13:01:26.326Z,6.55
2018-01-04T13:03:54.973Z,5.30
2018-01-04T13:06:22.835Z,5.50
2018-01-04T13:08:50.707Z,4.95
2018-01-04T13:11:18.411Z,6.37
2018-01-04T13:13:46.894Z,5.28
2018-01-04T13:16:15.366Z,4.90
2018-01-04T13:18:43.875Z,5.30
2018-01-04T13:21:11.605Z,4.68
2018-01-04T13:23:39.442Z,5.07
2018-01-04T13:26:07.207Z,4.78
2018-01-04T13:28:35.074Z,5.25
2018-01-04T13:31:02.941Z,5.12
2018-01-04T13:33:30.808Z,4.93
2018-01-04T13:35:58.676Z,4.70
2018-01-04T13:38:26.543Z,4.70
2018-01-04T13:40:54.437Z,4.10
2018-01-04T13:43:22.997Z,4.07
2018-01-04T13:45:50.863Z,4.18
2018-01-04T13:48:18.730Z,4.57
2018-01-04T13:50:46.438Z,5.12
2018-01-04T13:53:15.079Z,4.87
2018-01-04T13:55:42.946Z,4.37
2018-01-04T13:58:10.813Z,4.50
2018-01-04T14:00:38.518Z,4.20
2018-01-04T14:03:06.997Z,4.07
2018-01-04T14:05:35.476Z,5.15
2018-01-04T14:08:03.946Z,5.03
2018-01-04T14:10:31.641Z,5.40
2018-01-04T14:12:59.450Z,7.43
2018-01-04T14:15:27.318Z,7.85
2018-01-04T14:17:55.027Z,8.50
2018-01-04T14:20:23.500Z,9.52
2018-01-04T14:22:51.966Z,9.30
2018-01-04T14:25:19.681Z,9.02
2018-01-04T14:27:47.386Z,9.85
2018-01-04T14:30:15.136Z,10.35
2018-01-04T14:32:43.003Z,10.55
2018-01-04T14:35:11.501Z,11.20
2018-01-04T14:37:39.864Z,9.98
2018-01-04T14:40:08.142Z,10.27
2018-01-04T14:42:36.009Z,11.05
2018-01-04T14:45:03.877Z,10.98
2018-01-04T14:47:31.749Z,10.65
2018-01-04T14:49:59.465Z,11.18
2018-01-04T14:52:27.273Z,12.85
2018-01-04T14:54:55.140Z,11.90
2018-01-04T14:57:23.111Z,12.45
2018-01-04T14:59:50.978Z,10.38
2018-01-04T15:02:18.840Z,11.57
2018-01-04T15:04:46.713Z,12.70
2018-01-04T15:07:14.580Z,11.35
2018-01-04T15:09:42.447Z,11.05
2018-01-04T15:12:10.212Z,12.55
2018-01-04T15:14:38.080Z,11.12
2018-01-04T15:17:05.946Z,11.63
2018-01-04T15:19:33.815Z,11.90
2018-01-04T15:22:01.681Z,11.60
2018-01-04T15:24:29.548Z,11.45
2018-01-04T15:26:57.261Z,10.82
2018-01-04T15:29:25.781Z,12.10
2018-01-04T15:31:53.492Z,11.30
2018-01-04T15:34:22.910Z,12.40
2018-01-04T15:36:53.622Z,11.93
2018-01-04T15:39:21.375Z,12.55
2018-01-04T15:41:49.228Z,11.85
2018-01-04T15:44:17.198Z,13.60
2018-01-04T15:46:44.927Z,12.82
2018-01-04T15:49:12.638Z,13.50
2018-01-04T15:51:40.387Z,13.98
2018-01-04T15:54:08.118Z,12.45
2018-01-04T15:56:35.827Z,13.77
2018-01-04T15:59:03.585Z,12.37
2018-01-04T16:01:31.329Z,11.05
2018-01-04T16:03:59.083Z,11.73
2018-01-04T16:06:26.798Z,10.75
2018-01-04T16:08:54.501Z,12.23
2018-01-04T16:11:22.206Z,11.48
2018-01-04T16:13:49.925Z,12.37
2018-01-04T16:16:17.638Z,12.40
2018-01-04T16:18:45.355Z,11.25
2018-01-04T16:21:13.078Z,11.65
2018-01-04T16:23:40.780Z,13.02
2018-01-04T16:26:08.483Z,12.07
2018-01-04T16:28:36.199Z,11.25
2018-01-04T16:31:04.673Z,11.25
2018-01-04T16:33:33.141Z,11.20
2018-01-04T16:36:00.879Z,10.23
2018-01-04T16:38:28.585Z,10.60
2018-01-04T16:40:57.110Z,11.27
2018-01-04T16:43:24.829Z,11.27
2018-01-04T16:45:53.393Z,11.93
2018-01-04T16:48:21.177Z,12.20
2018-01-04T16:53:40.625Z,11.68
2018-01-04T16:56:20.505Z,10.45
2018-01-04T16:58:51.010Z,10.55
2018-01-04T17:01:21.675Z,9.82
2018-01-04T17:03:52.488Z,11.63
2018-01-04T17:06:22.296Z,10.90
2018-01-04T17:08:50.106Z,11.07
2018-01-04T17:11:17.823Z,12.35
2018-01-04T17:13:45.542Z,10.65
2018-01-04T17:16:13.345Z,9.50
2018-01-04T17:18:44.149Z,10.82
2018-01-04T17:21:15.146Z,10.82
2018-01-04T17:23:45.459Z,10.63
2018-01-04T17:26:16.848Z,9.55
2018-01-04T17:28:44.607Z,8.93
2018-01-04T17:31:13.247Z,9.95
2018-01-04T17:33:41.138Z,11.48
2018-01-04T17:36:09.801Z,9.88
2018-01-04T17:38:37.668Z,9.02
2018-01-04T17:41:05.535Z,9.95
2018-01-04T17:43:33.403Z,9.48
2018-01-04T17:46:01.270Z,7.80
2018-01-04T17:48:28.986Z,8.50
2018-01-04T17:50:57.462Z,9.30
2018-01-04T17:53:26.101Z,9.85
2018-01-04T17:55:54.000Z,8.85
2018-01-04T17:58:22.553Z,7.95
2018-01-04T18:00:50.258Z,9.35
2018-01-04T18:03:18.738Z,7.87
2018-01-04T18:05:47.216Z,6.50
2018-01-04T18:08:15.796Z,4.65
2018-01-04T18:10:44.271Z,4.45
2018-01-04T18:13:12.111Z,4.10
2018-01-04T18:15:39.834Z,10.48
2018-01-04T18:18:07.543Z,6.00
2018-01-04T18:20:35.246Z,3.70
2018-01-04T18:23:03.727Z,3.55
2018-01-04T18:25:32.205Z,3.50
2018-01-04T18:28:00.135Z,2.40
2018-01-04T18:30:28.003Z,2.65
2018-01-04T18:32:55.767Z,2.60
2018-01-04T18:35:23.634Z,2.40
2018-01-04T18:37:51.501Z,2.62
2018-01-04T18:40:19.229Z,3.40
2018-01-04T18:42:46.933Z,3.12
2018-01-04T18:45:14.657Z,3.30
2018-01-04T18:47:42.478Z,2.60
2018-01-04T18:50:10.328Z,2.17
2018-01-04T18:52:38.193Z,1.48
2018-01-04T18:55:05.990Z,1.98
2018-01-04T18:57:33.732Z,1.62
2018-01-04T19:00:01.456Z,1.42
2018-01-04T19:02:29.160Z,1.37
2018-01-04T19:04:56.874Z,1.42
2018-01-04T19:07:24.569Z,1.67
2018-01-04T19:09:52.285Z,1.70
2018-01-04T19:12:21.946Z,1.77
2018-01-04T19:14:49.688Z,3.08
2018-01-04T19:17:17.397Z,6.05
2018-01-04T19:19:45.125Z,2.50
2018-01-04T19:22:12.849Z,5.65
2018-01-04T19:24:41.321Z,3.92
2018-01-04T19:27:09.805Z,5.07
2018-01-04T19:29:38.277Z,2.87
2018-01-04T19:32:05.981Z,1.30
2018-01-04T19:34:33.685Z,1.30
2018-01-04T19:37:01.386Z,1.48
2018-01-04T19:39:29.861Z,1.75
2018-01-04T19:41:58.410Z,1.33
2018-01-04T19:44:26.111Z,1.30
2018-01-04T19:46:54.585Z,1.50
2018-01-04T19:49:22.935Z,1.52
2018-01-04T19:51:51.618Z,1.02
2018-01-04T19:54:19.484Z,1.50
2018-01-04T19:56:47.305Z,1.25
2018-01-04T19:59:15.769Z,1.27
2018-01-04T20:01:44.268Z,1.30
2018-01-04T20:04:11.975Z,1.60
2018-01-04T20:06:39.845Z,1.50
2018-01-04T20:09:07.712Z,1.40
2018-01-04T20:11:35.682Z,3.62
2018-01-04T20:14:03.571Z,9.82
2018-01-04T20:16:31.418Z,3.97
2018-01-04T20:19:00.103Z,1.60
2018-01-04T20:21:27.830Z,1.95
2018-01-04T20:23:55.550Z,2.67
2018-01-04T20:26:23.275Z,2.35
2018-01-04T20:28:51.029Z,2.60
2018-01-04T20:31:18.757Z,2.28
2018-01-04T20:33:47.237Z,3.40
2018-01-04T20:36:14.973Z,2.87
2018-01-04T20:38:42.690Z,3.03
2018-01-04T20:41:10.422Z,2.92
2018-01-04T20:43:38.209Z,4.30
2018-01-04T20:46:06.848Z,3.60
2018-01-04T20:48:34.590Z,6.95
2018-01-04T20:51:02.394Z,4.20
2018-01-04T20:53:30.104Z,3.28
2018-01-04T20:55:58.279Z,4.60
2018-01-04T20:58:26.187Z,3.53
2018-01-04T21:00:54.052Z,4.35
2018-01-04T21:03:21.847Z,4.72
2018-01-04T21:05:49.582Z,3.00
2018-01-04T21:08:17.452Z,4.60
2018-01-04T21:10:45.316Z,4.85
2018-01-04T21:13:13.184Z,4.37
2018-01-04T21:15:41.676Z,4.53
2018-01-04T21:18:09.533Z,4.18
2018-01-04T21:20:37.402Z,5.15
2018-01-04T21:23:05.122Z,3.95
2018-01-04T21:25:32.854Z,3.65
2018-01-04T21:28:00.573Z,4.80
2018-01-04T21:30:28.358Z,4.87
2018-01-04T21:32:56.086Z,4.35
2018-01-04T21:35:23.888Z,5.20
2018-01-04T21:37:51.609Z,4.87
2018-01-04T21:40:19.417Z,4.47
2018-01-04T21:42:47.219Z,4.40
2018-01-04T21:45:15.930Z,4.37
2018-01-04T21:47:43.839Z,4.43
2018-01-04T21:50:11.705Z,4.43
2018-01-04T21:52:39.508Z,3.75
2018-01-04T21:55:08.006Z,5.07
2018-01-04T21:57:35.733Z,5.80
2018-01-04T22:00:03.688Z,4.82
2018-01-04T22:02:31.555Z,4.18
2018-01-04T22:04:59.421Z,5.28
2018-01-04T22:07:27.146Z,4.68
2018-01-04T22:09:54.877Z,3.95
2018-01-04T22:12:22.598Z,6.00
2018-01-04T22:14:50.481Z,5.40
2018-01-04T22:17:18.355Z,6.40
2018-01-04T22:19:46.082Z,4.50
2018-01-04T22:22:13.801Z,4.05
2018-01-04T22:24:41.521Z,3.20
2018-01-04T22:27:09.246Z,4.18
2018-01-04T22:29:37.758Z,4.12
2018-01-04T22:32:05.487Z,4.25
2018-01-04T22:34:33.981Z,3.67
2018-01-04T22:37:02.481Z,5.75
2018-01-04T22:39:30.281Z,3.42
2018-01-04T22:41:58.148Z,3.70
2018-01-04T22:44:26.016Z,4.47
2018-01-04T22:46:54.518Z,3.92
2018-01-04T22:49:23.867Z,4.12
2018-01-04T22:51:51.676Z,3.37
2018-01-04T22:54:20.252Z,4.85
2018-01-04T22:56:48.052Z,3.28
2018-01-04T22:59:15.797Z,4.78
2018-01-04T23:01:43.574Z,4.78
2018-01-04T23:04:13.041Z,4.47
2018-01-04T23:06:41.945Z,3.70
2018-01-04T23:09:09.808Z,3.87
2018-01-04T23:11:37.676Z,3.78
2018-01-04T23:17:09.452Z,3.33
2018-01-04T23:19:46.636Z,3.83
2018-01-04T23:22:16.262Z,4.45
2018-01-04T23:24:45.468Z,4.35
2018-01-04T23:27:13.320Z,4.10
2018-01-04T23:29:41.052Z,4.05
2018-01-04T23:32:08.769Z,4.95
2018-01-04T23:34:36.495Z,5.32
2018-01-04T23:37:04.379Z,4.72
2018-01-04T23:39:32.110Z,4.75
2018-01-04T23:41:59.833Z,4.90
2018-01-04T23:44:27.561Z,4.25
2018-01-04T23:46:55.283Z,5.25
2018-01-04T23:49:23.769Z,3.60
2018-01-04T23:51:51.490Z,5.05
2018-01-04T23:54:19.987Z,3.70
2018-01-04T23:56:47.711Z,4.18
2018-01-04T23:59:15.437Z,9.27
